Time;durP1;ratioP1;P1;durP2;ratioP2;P2;SDS_P1;SDS_P2;PMS_P1;PMS_P2;Temp;Humidity;BMP_temperature;BMP_pressure;BME280_temperature;BME280_humidity;BME280_pressure;Samples;Min_cycle;Max_cycle;Signal;HPM_P1;HPM_P2
2023/05/10 00:00:22;;;;;;;1.65;1.35;;;13.10;99.90;;;;;;5009095;28;20045;-76
2023/05/10 00:02:48;;;;;;;2.38;1.70;;;13.10;99.90;;;;;;5008821;28;20158;-77
2023/05/10 00:05:14;;;;;;;1.70;1.48;;;13.00;99.90;;;;;;5008365;28;20116;-76
2023/05/10 00:07:39;;;;;;;2.47;1.40;;;13.00;99.90;;;;;;5008850;28;20612;-76
2023/05/10 00:10:06;;;;;;;2.42;1.38;;;13.00;99.90;;;;;;5008061;28;20029;-76
2023/05/10 00:12:32;;;;;;;2.17;1.23;;;13.00;99.90;;;;;;5007978;28;21474;-77
2023/05/10 00:14:57;;;;;;;3.10;1.60;;;13.00;99.90;;;;;;5008785;28;20022;-76
2023/05/10 00:17:23;;;;;;;1.60;1.30;;;13.00;99.90;;;;;;5008186;28;20474;-76
2023/05/10 00:19:49;;;;;;;3.58;1.90;;;13.00;99.90;;;;;;5008270;28;20033;-76
2023/05/10 00:22:14;;;;;;;2.15;1.60;;;13.00;99.90;;;;;;5007897;28;20042;-77
2023/05/10 00:24:40;;;;;;;1.85;1.50;;;13.00;99.90;;;;;;5008232;28;20021;-77
2023/05/10 00:27:05;;;;;;;2.53;1.48;;;13.00;99.90;;;;;;5008734;28;20042;-76
2023/05/10 00:29:31;;;;;;;2.40;1.40;;;13.00;99.90;;;;;;5008348;28;20088;-76
2023/05/10 00:31:57;;;;;;;1.75;1.33;;;13.00;99.90;;;;;;5008730;28;20037;-76
2023/05/10 00:34:22;;;;;;;1.83;1.27;;;13.00;99.90;;;;;;5007627;28;20040;-77
2023/05/10 00:36:48;;;;;;;2.53;1.55;;;12.90;99.90;;;;;;5008283;28;20026;-76
2023/05/10 00:39:13;;;;;;;3.35;1.33;;;12.90;99.90;;;;;;5008451;28;20021;-77
2023/05/10 00:41:39;;;;;;;2.67;1.30;;;12.90;99.90;;;;;;5007444;28;20112;-76
2023/05/10 00:44:05;;;;;;;3.90;1.27;;;12.90;99.90;;;;;;5007488;28;20034;-76
2023/05/10 00:46:31;;;;;;;1.50;1.10;;;12.90;99.90;;;;;;5008030;28;20045;-76
2023/05/10 00:48:57;;;;;;;3.17;1.20;;;12.90;99.90;;;;;;5008132;28;20494;-76
2023/05/10 00:51:22;;;;;;;2.50;1.20;;;12.90;99.90;;;;;;5008172;28;20052;-76
2023/05/10 00:53:49;;;;;;;1.63;1.10;;;12.90;99.90;;;;;;5007497;28;20033;-76
2023/05/10 00:56:15;;;;;;;3.47;1.17;;;12.90;99.90;;;;;;5007935;28;20037;-76
2023/05/10 00:58:41;;;;;;;2.33;1.38;;;12.80;99.90;;;;;;5007944;28;20041;-76
2023/05/10 01:01:08;;;;;;;1.83;1.02;;;12.80;99.90;;;;;;5007757;28;20537;-76
2023/05/10 01:03:35;;;;;;;1.45;1.10;;;12.90;99.90;;;;;;5007287;28;20406;-76
2023/05/10 01:06:00;;;;;;;5.55;2.05;;;12.80;99.90;;;;;;5007617;28;20209;-76
2023/05/10 01:08:27;;;;;;;1.73;0.90;;;12.80;99.90;;;;;;5008048;28;20728;-76
2023/05/10 01:10:53;;;;;;;1.75;1.05;;;12.90;99.90;;;;;;5007769;28;20034;-76
2023/05/10 01:13:27;;;;;;;1.90;1.08;;;12.80;99.90;;;;;;5007263;28;20034;-76
2023/05/10 01:15:54;;;;;;;1.20;1.00;;;12.80;99.90;;;;;;5007741;28;20025;-76
2023/05/10 01:18:22;;;;;;;1.27;1.00;;;12.80;99.90;;;;;;5006961;28;20058;-76
2023/05/10 01:20:59;;;;;;;2.22;1.00;;;12.80;99.90;;;;;;5007474;28;20128;-76
2023/05/10 01:23:52;;;;;;;1.42;0.90;;;12.80;99.90;;;;;;5006615;28;20013;-76
2023/05/10 01:26:33;;;;;;;1.02;0.80;;;12.80;99.90;;;;;;5007725;28;20064;-76
2023/05/10 01:29:14;;;;;;;1.27;0.88;;;12.80;99.90;;;;;;5007391;28;20022;-76
2023/05/10 01:32:05;;;;;;;1.98;1.02;;;12.80;99.90;;;;;;5007627;28;20029;-76
2023/05/10 01:34:56;;;;;;;2.05;1.02;;;12.80;99.90;;;;;;5006515;28;20030;-76
2023/05/10 01:37:45;;;;;;;0.88;0.80;;;12.80;99.90;;;;;;5007347;28;20112;-76
2023/05/10 01:40:29;;;;;;;1.67;0.90;;;12.70;99.90;;;;;;5006610;28;20029;-77
2023/05/10 01:43:02;;;;;;;0.80;0.80;;;12.70;99.90;;;;;;5006417;28;20032;-77
2023/05/10 01:45:37;;;;;;;1.58;0.93;;;12.70;99.90;;;;;;5007186;28;20034;-76
2023/05/10 01:48:09;;;;;;;1.13;0.90;;;12.70;99.90;;;;;;5007436;28;20033;-76
2023/05/10 01:50:38;;;;;;;1.35;0.80;;;12.70;99.90;;;;;;5006847;28;20033;-77
2023/05/10 01:53:07;;;;;;;2.58;1.13;;;12.70;99.90;;;;;;5006131;28;20829;-76
2023/05/10 01:55:39;;;;;;;0.82;0.80;;;12.70;99.90;;;;;;5006955;28;20088;-77
2023/05/10 01:58:10;;;;;;;0.95;0.70;;;12.60;99.90;;;;;;5006257;28;20395;-76
2023/05/10 02:00:39;;;;;;;3.67;0.88;;;12.60;99.90;;;;;;5007029;28;20037;-76
2023/05/10 02:03:07;;;;;;;1.98;1.05;;;12.60;99.90;;;;;;5006158;28;20033;-76
2023/05/10 02:05:34;;;;;;;1.00;0.90;;;12.60;99.90;;;;;;5008524;28;20032;-76
2023/05/10 02:08:02;;;;;;;2.15;0.80;;;12.60;99.90;;;;;;5007706;28;20026;-76
2023/05/10 02:10:30;;;;;;;1.13;0.80;;;12.60;99.90;;;;;;5006737;28;20040;-76
2023/05/10 02:12:59;;;;;;;1.40;1.00;;;12.60;99.90;;;;;;5006151;28;21495;-77
2023/05/10 02:15:26;;;;;;;2.00;0.95;;;12.50;99.90;;;;;;5006567;28;20032;-77
2023/05/10 02:17:54;;;;;;;2.15;0.80;;;12.60;99.90;;;;;;5005941;28;20382;-77
2023/05/10 02:20:21;;;;;;;2.88;0.88;;;12.50;99.90;;;;;;5006287;28;20026;-77
2023/05/10 02:22:50;;;;;;;2.17;0.80;;;12.50;99.90;;;;;;5005921;28;20091;-77
2023/05/10 02:25:19;;;;;;;1.20;1.10;;;12.50;99.90;;;;;;5005695;28;20037;-76
2023/05/10 02:27:45;;;;;;;1.42;0.90;;;12.50;99.90;;;;;;5006064;28;20061;-76
2023/05/10 02:30:12;;;;;;;1.27;1.00;;;12.50;99.90;;;;;;5006278;28;20669;-76
2023/05/10 02:32:38;;;;;;;1.45;1.00;;;12.50;99.90;;;;;;5006381;28;20022;-76
2023/05/10 02:35:04;;;;;;;1.30;1.00;;;12.50;99.90;;;;;;5005539;28;20057;-76
2023/05/10 02:37:31;;;;;;;0.80;0.80;;;12.50;99.90;;;;;;5006079;28;20026;-75
2023/05/10 02:39:56;;;;;;;1.00;0.90;;;12.50;99.90;;;;;;5005766;28;20608;-76
2023/05/10 02:42:27;;;;;;;1.13;0.90;;;12.50;99.90;;;;;;5005782;28;20037;-76
2023/05/10 02:44:59;;;;;;;2.30;0.80;;;12.50;99.90;;;;;;5005681;28;20167;-77
2023/05/10 02:47:24;;;;;;;1.17;0.90;;;12.50;99.90;;;;;;5005774;28;20033;-76
2023/05/10 02:49:50;;;;;;;2.22;0.90;;;12.50;99.90;;;;;;5006342;28;20082;-76
2023/05/10 02:52:21;;;;;;;1.30;0.82;;;12.50;99.90;;;;;;5005627;28;20516;-76
2023/05/10 02:54:50;;;;;;;4.72;1.98;;;12.40;99.90;;;;;;5005223;28;20022;-76
2023/05/10 02:57:20;;;;;;;1.98;0.93;;;12.50;99.90;;;;;;5005296;28;20117;-76
2023/05/10 02:59:45;;;;;;;0.85;0.85;;;12.50;99.90;;;;;;5006168;28;20033;-76
2023/05/10 03:02:12;;;;;;;1.20;0.93;;;12.50;99.90;;;;;;5006363;28;20041;-76
2023/05/10 03:04:38;;;;;;;1.40;1.00;;;12.50;99.90;;;;;;5004611;28;20121;-76
2023/05/10 03:07:04;;;;;;;1.00;0.90;;;12.50;99.90;;;;;;5005701;28;20085;-76
2023/05/10 03:09:30;;;;;;;1.13;1.00;;;12.40;99.90;;;;;;5005836;28;20108;-76
2023/05/10 03:12:31;;;;;;;1.98;0.90;;;12.40;99.90;;;;;;5006136;28;20061;-76
2023/05/10 03:15:33;;;;;;;2.75;1.00;;;12.40;99.90;;;;;;5005484;28;20053;-76
2023/05/10 03:18:07;;;;;;;1.00;0.93;;;12.40;99.90;;;;;;5004440;28;20107;-76
2023/05/10 03:20:41;;;;;;;0.95;0.85;;;12.40;99.90;;;;;;5004973;28;20053;-76
2023/05/10 03:23:40;;;;;;;1.83;1.38;;;12.40;99.90;;;;;;5004695;28;21350;-76
2023/05/10 03:26:07;;;;;;;2.83;1.33;;;12.30;99.90;;;;;;5005502;28;20084;-76
2023/05/10 03:28:34;;;;;;;2.08;1.25;;;12.30;99.90;;;;;;5004968;28;20402;-76
2023/05/10 03:31:00;;;;;;;1.33;1.02;;;12.40;99.90;;;;;;5005813;28;20037;-76
2023/05/10 03:33:26;;;;;;;2.28;1.20;;;12.40;99.90;;;;;;5005084;28;20403;-76
2023/05/10 03:35:51;;;;;;;1.33;1.13;;;12.30;99.90;;;;;;5005653;28;20034;-76
2023/05/10 03:38:17;;;;;;;1.48;1.00;;;12.40;99.90;;;;;;5005537;28;20486;-76
2023/05/10 03:40:42;;;;;;;1.40;1.10;;;12.30;99.90;;;;;;5005540;28;20072;-76
2023/05/10 03:43:08;;;;;;;1.98;1.00;;;12.30;99.90;;;;;;5005031;28;20037;-76
2023/05/10 03:45:33;;;;;;;1.23;0.88;;;12.30;99.90;;;;;;5005065;28;20021;-76
2023/05/10 03:47:59;;;;;;;3.10;1.17;;;12.30;99.90;;;;;;5005387;28;20056;-76
2023/05/10 03:50:24;;;;;;;1.27;0.90;;;12.30;99.90;;;;;;5005220;28;20148;-76
2023/05/10 03:52:50;;;;;;;1.00;0.90;;;12.30;99.90;;;;;;5005168;28;20099;-76
2023/05/10 03:55:16;;;;;;;1.65;0.95;;;12.30;99.90;;;;;;5005078;28;20431;-76
2023/05/10 03:57:41;;;;;;;1.67;0.85;;;12.30;99.90;;;;;;5004488;28;20029;-77
2023/05/10 04:00:08;;;;;;;1.73;0.80;;;12.30;99.90;;;;;;5005349;28;20038;-76
2023/05/10 04:02:33;;;;;;;3.03;0.90;;;12.30;99.90;;;;;;5004881;28;20045;-76
2023/05/10 04:04:59;;;;;;;2.28;0.90;;;12.30;99.90;;;;;;5004480;28;20080;-76
2023/05/10 04:07:24;;;;;;;1.38;0.90;;;12.30;99.90;;;;;;5005142;28;20121;-76
2023/05/10 04:09:50;;;;;;;1.10;0.93;;;12.30;99.90;;;;;;5005059;28;20037;-76
2023/05/10 04:12:15;;;;;;;6.07;1.15;;;12.30;99.90;;;;;;5005095;28;20525;-76
2023/05/10 04:14:41;;;;;;;1.30;0.80;;;12.40;99.90;;;;;;5004533;28;20080;-76
2023/05/10 04:17:06;;;;;;;1.98;0.85;;;12.40;99.90;;;;;;5007927;28;20033;-76
2023/05/10 04:19:32;;;;;;;2.00;1.00;;;12.40;99.90;;;;;;5007711;28;20060;-76
2023/05/10 04:21:58;;;;;;;1.05;0.82;;;12.40;99.90;;;;;;5008247;28;20042;-76
2023/05/10 04:24:24;;;;;;;1.10;0.80;;;12.40;99.90;;;;;;5007553;28;20427;-76
2023/05/10 04:26:49;;;;;;;1.00;0.90;;;12.40;99.90;;;;;;5007495;28;20037;-76
2023/05/10 04:29:15;;;;;;;1.27;1.05;;;12.40;99.90;;;;;;5007811;28;20037;-76
2023/05/10 04:31:40;;;;;;;1.10;0.77;;;12.50;99.90;;;;;;5008597;28;20619;-76
2023/05/10 04:34:06;;;;;;;0.60;0.60;;;12.50;99.90;;;;;;5007754;28;20033;-76
2023/05/10 04:36:36;;;;;;;3.80;0.93;;;12.50;99.90;;;;;;5008252;28;20049;-76
2023/05/10 04:39:02;;;;;;;0.60;0.60;;;12.40;99.90;;;;;;5007943;28;20561;-76
2023/05/10 04:41:29;;;;;;;0.60;0.60;;;12.40;99.90;;;;;;5007255;28;20529;-76
2023/05/10 04:43:55;;;;;;;0.70;0.70;;;12.40;99.90;;;;;;5007320;28;20437;-76
2023/05/10 04:46:20;;;;;;;0.88;0.70;;;12.40;99.90;;;;;;5007408;28;20044;-76
2023/05/10 04:48:46;;;;;;;0.88;0.73;;;12.50;99.90;;;;;;5007755;28;20161;-76
2023/05/10 04:51:12;;;;;;;1.48;0.80;;;12.40;99.90;;;;;;5007247;28;20033;-77
2023/05/10 04:53:37;;;;;;;0.70;0.70;;;12.40;99.90;;;;;;5006352;28;20044;-77
2023/05/10 04:56:03;;;;;;;0.60;0.60;;;12.40;99.90;;;;;;5003737;28;20034;-78
2023/05/10 04:58:28;;;;;;;1.48;0.50;;;12.40;99.90;;;;;;5006997;28;20026;-78
2023/05/10 05:00:55;;;;;;;1.05;0.70;;;12.50;99.90;;;;;;5007322;28;20045;-79
2023/05/10 05:03:21;;;;;;;0.73;0.70;;;12.40;99.90;;;;;;5004712;28;20054;-78
2023/05/10 05:05:47;;;;;;;1.45;0.60;;;12.40;99.90;;;;;;5006784;28;20034;-78
2023/05/10 05:08:13;;;;;;;0.75;0.50;;;12.30;99.90;;;;;;5053167;22;20092;-82
2023/05/10 05:10:38;;;;;;;1.65;0.50;;;12.40;99.90;;;;;;5026013;28;20041;-80
2023/05/10 05:13:04;;;;;;;3.08;0.80;;;12.30;99.90;;;;;;5023279;28;20055;-80
2023/05/10 05:15:30;;;;;;;3.55;0.80;;;12.30;99.90;;;;;;5026504;28;20041;-81
2023/05/10 05:17:56;;;;;;;4.72;0.80;;;12.30;99.90;;;;;;5024876;28;20397;-81
2023/05/10 05:20:21;;;;;;;0.90;0.80;;;12.30;99.90;;;;;;5025023;28;20037;-80
2023/05/10 05:22:46;;;;;;;1.15;0.80;;;12.20;99.90;;;;;;5025550;28;20059;-80
2023/05/10 05:25:12;;;;;;;2.20;0.60;;;12.20;99.90;;;;;;5024145;28;20040;-79
2023/05/10 05:27:38;;;;;;;0.70;0.60;;;12.20;99.90;;;;;;5025785;28;20470;-79
2023/05/10 05:30:04;;;;;;;0.82;0.60;;;12.20;99.90;;;;;;5024876;28;20420;-79
2023/05/10 05:32:30;;;;;;;0.95;0.70;;;12.20;99.90;;;;;;5022924;28;20092;-79
2023/05/10 05:34:56;;;;;;;0.45;0.45;;;12.10;99.90;;;;;;5021466;28;20036;-79
2023/05/10 05:37:22;;;;;;;2.08;0.73;;;12.10;99.90;;;;;;5016930;28;20038;-79
2023/05/10 05:39:48;;;;;;;1.45;0.57;;;12.10;99.90;;;;;;5016530;28;20022;-80
2023/05/10 05:42:14;;;;;;;1.33;0.60;;;12.20;99.90;;;;;;5015841;28;20122;-79
2023/05/10 05:44:40;;;;;;;0.75;0.60;;;12.20;99.90;;;;;;5015076;28;20370;-79
2023/05/10 05:47:06;;;;;;;1.75;0.60;;;12.20;99.90;;;;;;5015682;28;20090;-79
2023/05/10 05:49:32;;;;;;;1.27;0.80;;;12.20;99.90;;;;;;5016023;28;20528;-79
2023/05/10 05:52:02;;;;;;;1.23;0.85;;;12.20;99.90;;;;;;5014786;28;20059;-80
2023/05/10 05:54:28;;;;;;;0.82;0.70;;;12.30;99.90;;;;;;5014674;28;20405;-79
2023/05/10 05:56:55;;;;;;;3.25;0.80;;;12.40;99.90;;;;;;5013890;28;20041;-79
2023/05/10 05:59:21;;;;;;;1.38;0.80;;;12.40;99.90;;;;;;5017281;28;20037;-78
2023/05/10 06:01:46;;;;;;;1.38;0.98;;;12.40;99.90;;;;;;5016224;28;20045;-79
2023/05/10 06:04:12;;;;;;;1.40;0.85;;;12.50;99.90;;;;;;5018101;28;20032;-80
2023/05/10 06:06:37;;;;;;;1.00;0.90;;;12.60;99.90;;;;;;5017238;28;20065;-80
2023/05/10 06:09:03;;;;;;;2.72;0.75;;;12.60;99.90;;;;;;5016490;28;20044;-79
2023/05/10 06:11:28;;;;;;;1.25;0.63;;;12.70;99.90;;;;;;5015467;28;20033;-79
2023/05/10 06:13:54;;;;;;;1.27;0.80;;;12.70;99.90;;;;;;5017155;28;20040;-80
2023/05/10 06:16:19;;;;;;;1.85;0.63;;;12.80;99.90;;;;;;5016467;28;21470;-79
2023/05/10 06:18:45;;;;;;;2.00;0.80;;;12.80;99.90;;;;;;5018519;28;20036;-79
2023/05/10 06:21:10;;;;;;;0.95;0.75;;;12.80;99.90;;;;;;5017315;28;20096;-80
2023/05/10 06:23:36;;;;;;;1.38;0.90;;;12.90;99.90;;;;;;5016409;28;20029;-79
2023/05/10 06:26:02;;;;;;;0.95;0.82;;;12.90;99.90;;;;;;5017144;28;20054;-80
2023/05/10 06:28:27;;;;;;;1.05;0.68;;;13.00;99.90;;;;;;5018345;28;20040;-79
2023/05/10 06:30:52;;;;;;;3.35;0.80;;;13.00;99.90;;;;;;5017323;28;20057;-80
2023/05/10 06:33:18;;;;;;;1.67;1.00;;;13.20;99.90;;;;;;5013591;28;20376;-80
2023/05/10 06:35:43;;;;;;;1.42;0.80;;;13.20;99.90;;;;;;5016815;28;20029;-80
2023/05/10 06:38:09;;;;;;;2.78;0.93;;;13.20;99.90;;;;;;5015136;28;20072;-80
2023/05/10 06:40:35;;;;;;;1.63;0.77;;;13.30;99.90;;;;;;5018709;28;20045;-79
2023/05/10 06:43:01;;;;;;;1.75;0.90;;;13.30;99.90;;;;;;5016635;28;20033;-80
2023/05/10 06:45:26;;;;;;;1.40;0.88;;;13.40;99.90;;;;;;5019120;28;20539;-80
2023/05/10 06:47:52;;;;;;;1.98;0.90;;;13.40;99.90;;;;;;5018931;28;20025;-79
2023/05/10 06:50:18;;;;;;;2.03;0.90;;;13.50;99.90;;;;;;5017033;28;20353;-80
2023/05/10 06:52:43;;;;;;;3.17;0.82;;;13.60;99.90;;;;;;5016657;28;20109;-80
2023/05/10 06:55:09;;;;;;;1.35;1.00;;;13.60;99.90;;;;;;5019204;28;20034;-80
2023/05/10 06:57:35;;;;;;;0.98;0.88;;;13.80;99.90;;;;;;5018326;28;20105;-80
2023/05/10 07:00:03;;;;;;;1.10;0.90;;;13.90;99.90;;;;;;5016705;28;20025;-81
2023/05/10 07:02:29;;;;;;;1.33;0.85;;;14.00;99.90;;;;;;5015702;28;20103;-79
2023/05/10 07:04:54;;;;;;;1.30;0.90;;;14.10;99.90;;;;;;5017976;28;20072;-79
2023/05/10 07:07:20;;;;;;;1.33;0.90;;;14.20;99.90;;;;;;5016840;28;20041;-79
2023/05/10 07:09:46;;;;;;;3.33;0.90;;;14.50;99.90;;;;;;5018785;28;20060;-80
2023/05/10 07:12:11;;;;;;;0.98;0.80;;;14.70;99.90;;;;;;5016045;28;20065;-79
2023/05/10 07:14:37;;;;;;;2.00;1.20;;;14.80;99.90;;;;;;5018325;28;20087;-80
2023/05/10 07:17:02;;;;;;;2.47;0.80;;;14.90;99.90;;;;;;5015607;28;20047;-79
2023/05/10 07:19:29;;;;;;;1.77;1.02;;;15.00;99.90;;;;;;5014884;28;21076;-78
2023/05/10 07:21:55;;;;;;;2.08;1.00;;;15.00;99.90;;;;;;5012096;28;20087;-79
2023/05/10 07:24:20;;;;;;;3.38;1.00;;;15.10;99.90;;;;;;5016214;28;20112;-79
2023/05/10 07:26:46;;;;;;;2.42;1.00;;;15.10;99.90;;;;;;5015681;28;20128;-79
2023/05/10 07:29:11;;;;;;;0.90;0.80;;;15.20;99.90;;;;;;5015859;28;20025;-79
2023/05/10 07:31:37;;;;;;;1.63;1.10;;;15.30;99.90;;;;;;5020807;28;20029;-79
2023/05/10 07:34:03;;;;;;;1.10;0.90;;;15.30;99.90;;;;;;5012434;28;20029;-78
2023/05/10 07:36:28;;;;;;;1.65;0.80;;;15.40;99.90;;;;;;5014520;28;20040;-78
2023/05/10 07:38:54;;;;;;;1.80;1.27;;;15.40;99.90;;;;;;5015138;28;21427;-79
2023/05/10 07:41:20;;;;;;;3.15;1.17;;;15.30;99.90;;;;;;5013614;28;20042;-79
2023/05/10 07:43:46;;;;;;;2.47;0.90;;;15.30;99.90;;;;;;5013905;28;21346;-79
2023/05/10 07:46:12;;;;;;;1.25;0.88;;;15.20;99.90;;;;;;5014604;28;20026;-79
2023/05/10 07:48:37;;;;;;;1.90;0.95;;;15.20;99.90;;;;;;5016656;28;20488;-79
2023/05/10 07:51:03;;;;;;;1.55;0.80;;;15.10;99.90;;;;;;5027046;28;20033;-78
2023/05/10 07:53:28;;;;;;;1.50;0.82;;;15.10;99.90;;;;;;5026917;28;20029;-79
2023/05/10 07:55:58;;;;;;;1.15;1.00;;;15.10;99.90;;;;;;5025266;28;20049;-78
2023/05/10 07:58:23;;;;;;;2.20;1.00;;;15.10;99.90;;;;;;5026770;28;20132;-78
2023/05/10 08:00:50;;;;;;;2.65;0.95;;;15.10;99.90;;;;;;5025855;28;20041;-78
2023/05/10 08:03:15;;;;;;;1.48;0.93;;;15.10;99.90;;;;;;5022259;28;20034;-79
2023/05/10 08:05:41;;;;;;;1.92;0.90;;;15.20;99.90;;;;;;5023339;28;20033;-78
2023/05/10 08:08:07;;;;;;;1.70;1.08;;;15.30;99.90;;;;;;5026367;28;20801;-78
2023/05/10 08:10:33;;;;;;;1.50;0.90;;;15.40;99.90;;;;;;5024042;28;20033;-79
2023/05/10 08:12:59;;;;;;;3.13;0.93;;;15.50;99.90;;;;;;5021740;28;20139;-78
2023/05/10 08:15:25;;;;;;;3.05;1.17;;;15.50;99.90;;;;;;5023678;28;20052;-78
2023/05/10 08:17:51;;;;;;;1.30;0.90;;;15.50;99.90;;;;;;5025884;28;20444;-78
2023/05/10 08:20:18;;;;;;;6.07;0.90;;;15.50;99.90;;;;;;5023322;28;20037;-78
2023/05/10 08:22:45;;;;;;;1.35;0.93;;;15.40;99.90;;;;;;5023015;28;20029;-78
2023/05/10 08:25:10;;;;;;;1.70;0.80;;;15.30;99.90;;;;;;5023244;28;20033;-78
2023/05/10 08:27:36;;;;;;;3.95;0.90;;;15.20;99.90;;;;;;5024854;28;20044;-78
2023/05/10 08:30:02;;;;;;;1.27;0.70;;;15.10;99.90;;;;;;5024831;28;20040;-79
2023/05/10 08:32:27;;;;;;;1.92;0.90;;;15.10;99.90;;;;;;5023514;28;20053;-78
2023/05/10 08:34:53;;;;;;;1.77;0.90;;;15.10;99.90;;;;;;5020855;28;20029;-79
2023/05/10 08:37:18;;;;;;;1.58;0.63;;;15.20;99.90;;;;;;5024954;28;20071;-79
2023/05/10 08:39:45;;;;;;;1.40;0.88;;;15.10;99.90;;;;;;5024242;28;20030;-78
2023/05/10 08:42:12;;;;;;;1.77;0.90;;;15.00;99.90;;;;;;5024551;28;20061;-78
2023/05/10 08:44:37;;;;;;;2.25;0.80;;;14.90;99.90;;;;;;5022871;28;20042;-78
2023/05/10 08:47:06;;;;;;;2.20;1.08;;;14.90;99.90;;;;;;5023653;28;20047;-79
2023/05/10 08:49:33;;;;;;;2.45;0.73;;;14.90;99.90;;;;;;5024088;28;20056;-78
2023/05/10 08:52:01;;;;;;;2.25;0.95;;;15.10;99.90;;;;;;5022840;28;20071;-78
2023/05/10 08:54:27;;;;;;;1.10;0.80;;;15.30;99.90;;;;;;5024347;28;20116;-79
2023/05/10 08:56:53;;;;;;;1.42;0.60;;;15.70;99.90;;;;;;5022112;28;20051;-79
2023/05/10 08:59:18;;;;;;;3.67;0.80;;;16.00;99.90;;;;;;5024125;28;20064;-79
2023/05/10 09:01:45;;;;;;;1.23;0.60;;;16.20;99.90;;;;;;5023465;28;20390;-79
2023/05/10 09:04:12;;;;;;;2.88;0.90;;;16.40;99.90;;;;;;5022642;28;20711;-79
2023/05/10 09:06:38;;;;;;;3.65;1.38;;;16.40;99.90;;;;;;5023713;28;20033;-78
2023/05/10 09:09:04;;;;;;;0.88;0.73;;;16.40;99.90;;;;;;5024383;28;20701;-79
2023/05/10 09:11:30;;;;;;;2.78;1.05;;;16.30;99.90;;;;;;5023842;28;20452;-79
2023/05/10 09:13:56;;;;;;;0.95;0.63;;;16.30;99.90;;;;;;5023407;28;20029;-79
2023/05/10 09:16:22;;;;;;;1.85;0.50;;;16.30;99.90;;;;;;5020087;28;20037;-78
2023/05/10 09:18:49;;;;;;;2.80;0.77;;;16.30;99.90;;;;;;5021004;28;20057;-79
2023/05/10 09:21:14;;;;;;;1.27;0.80;;;16.30;99.90;;;;;;5022208;28;20053;-79
2023/05/10 09:23:43;;;;;;;1.95;0.80;;;16.40;99.90;;;;;;5022800;28;20042;-78
2023/05/10 09:26:09;;;;;;;3.22;0.90;;;16.50;99.90;;;;;;5022898;28;21388;-79
2023/05/10 09:28:49;;;;;;;2.72;0.77;;;16.60;99.90;;;;;;5023040;28;20033;-79
2023/05/10 09:31:15;;;;;;;3.58;0.80;;;16.80;99.90;;;;;;5023846;28;20041;-79
2023/05/10 09:33:45;;;;;;;2.05;0.70;;;16.90;99.90;;;;;;5023853;28;20800;-78
2023/05/10 09:36:11;;;;;;;2.53;0.93;;;16.80;99.90;;;;;;5021857;28;20444;-79
2023/05/10 09:38:54;;;;;;;2.97;1.00;;;16.70;99.90;;;;;;5024822;28;20504;-79
2023/05/10 09:41:24;;;;;;;4.70;1.08;;;16.60;99.90;;;;;;5021781;28;20052;-78
2023/05/10 09:43:54;;;;;;;2.45;0.77;;;16.60;99.90;;;;;;5023271;28;20045;-79
2023/05/10 09:46:20;;;;;;;0.65;0.60;;;16.60;99.90;;;;;;5020898;28;20536;-79
2023/05/10 09:48:47;;;;;;;1.10;0.75;;;16.70;99.90;;;;;;5026017;28;20036;-79
2023/05/10 09:51:20;;;;;;;2.58;0.90;;;16.70;99.90;;;;;;5021422;28;20036;-79
2023/05/10 09:53:46;;;;;;;1.15;0.60;;;16.80;99.90;;;;;;5024980;28;20029;-79
2023/05/10 09:56:11;;;;;;;1.10;0.73;;;17.00;99.90;;;;;;5024576;28;21044;-79
2023/05/10 09:58:40;;;;;;;0.77;0.70;;;17.20;99.90;;;;;;5022234;28;20032;-79
2023/05/10 10:01:11;;;;;;;1.23;0.80;;;17.20;99.90;;;;;;5025027;28;20029;-79
2023/05/10 10:03:43;;;;;;;1.58;0.90;;;17.20;99.90;;;;;;5023109;28;20097;-79
2023/05/10 10:06:08;;;;;;;3.13;0.82;;;17.50;99.90;;;;;;5023195;28;20688;-79
2023/05/10 10:08:34;;;;;;;1.50;0.90;;;17.60;99.90;;;;;;5024532;28;20049;-79
2023/05/10 10:11:01;;;;;;;2.63;0.90;;;17.70;99.90;;;;;;5025379;28;20038;-79
2023/05/10 10:13:26;;;;;;;1.52;0.70;;;17.90;99.90;;;;;;5025479;28;20121;-79
2023/05/10 10:15:54;;;;;;;1.50;0.80;;;18.20;99.90;;;;;;5024616;28;20030;-79
2023/05/10 10:18:23;;;;;;;2.88;0.93;;;18.60;99.90;;;;;;5024747;28;20030;-78
2023/05/10 10:20:49;;;;;;;1.75;0.77;;;18.80;99.90;;;;;;5026520;28;20780;-79
2023/05/10 10:23:15;;;;;;;1.83;1.00;;;18.80;99.90;;;;;;5025044;28;20661;-79
2023/05/10 10:25:41;;;;;;;0.85;0.85;;;18.50;99.90;;;;;;5029201;28;20122;-79
2023/05/10 10:28:33;;;;;;;2.30;0.73;;;18.10;99.90;;;;;;5023817;28;20033;-79
2023/05/10 10:31:10;;;;;;;1.60;0.90;;;17.80;99.90;;;;;;5022635;28;20527;-79
2023/05/10 10:33:56;;;;;;;3.92;1.00;;;17.50;99.90;;;;;;5023878;28;20180;-79
2023/05/10 10:36:22;;;;;;;1.65;0.90;;;17.30;99.90;;;;;;5023742;28;20769;-79
2023/05/10 10:38:47;;;;;;;2.53;0.90;;;17.10;99.90;;;;;;5023656;28;20025;-80
2023/05/10 10:41:37;;;;;;;1.13;0.90;;;17.10;99.90;;;;;;5024026;28;20728;-79
2023/05/10 10:44:21;;;;;;;2.08;0.93;;;17.00;99.90;;;;;;5021812;28;20054;-79
2023/05/10 10:47:18;;;;;;;1.70;0.93;;;17.00;99.90;;;;;;5021350;28;21592;-79
2023/05/10 10:50:04;;;;;;;2.53;0.80;;;17.10;99.90;;;;;;5021136;28;20047;-79
2023/05/10 10:52:37;;;;;;;2.05;0.80;;;16.90;99.90;;;;;;5024796;28;20039;-79
2023/05/10 10:55:14;;;;;;;0.95;0.73;;;16.90;99.90;;;;;;5021830;28;20037;-79
2023/05/10 10:57:48;;;;;;;2.92;1.00;;;16.80;99.90;;;;;;5022900;28;20033;-79
2023/05/10 11:00:25;;;;;;;3.95;1.27;;;16.60;99.90;;;;;;5024664;28;20033;-79
2023/05/10 11:02:55;;;;;;;3.53;1.20;;;16.50;99.90;;;;;;5022738;28;20045;-79
2023/05/10 11:05:27;;;;;;;2.13;0.90;;;16.20;99.90;;;;;;5020477;28;20034;-78
2023/05/10 11:07:54;;;;;;;3.78;1.15;;;15.80;99.90;;;;;;5022684;28;20397;-79
2023/05/10 11:10:21;;;;;;;4.63;1.02;;;15.50;99.90;;;;;;5042705;22;20448;-77
2023/05/10 11:13:00;;;;;;;2.70;1.08;;;15.30;99.90;;;;;;5030840;28;20047;-76
2023/05/10 11:15:37;;;;;;;3.28;1.45;;;15.10;99.90;;;;;;5011681;28;20208;-76
2023/05/10 11:18:28;;;;;;;2.58;1.40;;;14.80;99.90;;;;;;5011807;28;20037;-76
2023/05/10 11:20:59;;;;;;;2.80;1.27;;;14.60;99.90;;;;;;5012108;28;20041;-77
2023/05/10 11:23:30;;;;;;;1.98;1.10;;;14.30;99.90;;;;;;5011856;28;20057;-77
2023/05/10 11:25:56;;;;;;;2.53;1.02;;;14.10;99.90;;;;;;5016068;28;20029;-75
2023/05/10 11:28:21;;;;;;;2.30;1.20;;;13.90;99.90;;;;;;5016913;28;20052;-75
2023/05/10 11:30:47;;;;;;;4.05;1.02;;;13.80;99.90;;;;;;5015995;28;20052;-75
2023/05/10 11:33:19;;;;;;;3.08;1.30;;;13.70;99.90;;;;;;5015615;28;20048;-75
2023/05/10 11:35:45;;;;;;;2.50;1.20;;;13.60;99.90;;;;;;5016596;28;20120;-75
2023/05/10 11:38:14;;;;;;;2.53;1.00;;;13.60;99.90;;;;;;5015761;28;20037;-75
2023/05/10 11:40:41;;;;;;;2.22;0.95;;;13.50;99.90;;;;;;5014726;28;20034;-75
2023/05/10 11:43:09;;;;;;;1.55;0.95;;;13.60;99.90;;;;;;5014966;28;20056;-75
2023/05/10 11:45:35;;;;;;;1.55;1.00;;;13.60;99.90;;;;;;5016199;28;20040;-76
2023/05/10 11:48:02;;;;;;;2.50;1.70;;;13.50;99.90;;;;;;5016094;28;20030;-75
2023/05/10 11:50:28;;;;;;;2.13;1.40;;;13.40;99.90;;;;;;5015695;28;20022;-75
2023/05/10 11:52:55;;;;;;;3.67;1.20;;;13.30;99.90;;;;;;5015264;28;20040;-75
2023/05/10 11:55:21;;;;;;;3.63;1.30;;;13.20;99.90;;;;;;5015802;28;20033;-75
2023/05/10 11:57:47;;;;;;;2.58;1.40;;;13.10;99.90;;;;;;5016012;28;20473;-75
2023/05/10 12:00:13;;;;;;;3.72;1.63;;;13.10;99.90;;;;;;5015628;28;20139;-75
2023/05/10 12:02:39;;;;;;;4.43;1.75;;;13.10;99.90;;;;;;5015972;28;20037;-75
2023/05/10 12:05:06;;;;;;;3.63;1.50;;;13.10;99.90;;;;;;5014742;28;20038;-75
2023/05/10 12:07:31;;;;;;;2.83;1.40;;;13.10;99.90;;;;;;5015218;28;20107;-75
2023/05/10 12:10:08;;;;;;;2.35;1.48;;;13.10;99.90;;;;;;5015894;28;20064;-75
2023/05/10 12:12:38;;;;;;;3.70;1.40;;;13.10;99.90;;;;;;5015369;28;20128;-75
2023/05/10 12:15:06;;;;;;;2.90;1.60;;;13.10;99.90;;;;;;5013571;28;20022;-75
2023/05/10 12:17:31;;;;;;;2.72;1.48;;;13.10;99.90;;;;;;5015285;28;20026;-75
2023/05/10 12:20:20;;;;;;;3.22;1.63;;;13.10;99.90;;;;;;5012735;28;20037;-75
2023/05/10 12:22:51;;;;;;;3.97;1.38;;;13.10;99.90;;;;;;5014883;28;20065;-75
2023/05/10 12:25:18;;;;;;;4.28;1.85;;;13.10;99.90;;;;;;5013132;28;20983;-75
2023/05/10 12:27:55;;;;;;;3.47;1.65;;;13.10;99.90;;;;;;5014379;28;20497;-76
2023/05/10 12:30:28;;;;;;;3.78;2.15;;;13.20;99.90;;;;;;5013407;28;20095;-75
2023/05/10 12:32:59;;;;;;;4.43;1.75;;;13.30;99.90;;;;;;5013937;28;20037;-75
2023/05/10 12:35:27;;;;;;;2.10;1.25;;;13.30;99.90;;;;;;5014347;28;20033;-75
2023/05/10 12:37:52;;;;;;;9.18;5.95;;;13.40;99.90;;;;;;5012984;28;20132;-76
2023/05/10 12:40:18;;;;;;;2.72;1.05;;;13.40;99.90;;;;;;5014557;28;20092;-75
2023/05/10 12:42:46;;;;;;;2.00;1.00;;;13.30;99.90;;;;;;5014255;28;20048;-76
2023/05/10 12:45:12;;;;;;;4.07;1.10;;;13.30;99.90;;;;;;5014005;28;20018;-75
2023/05/10 12:47:38;;;;;;;2.20;1.17;;;13.30;99.90;;;;;;5014799;28;20033;-75
2023/05/10 12:50:05;;;;;;;2.83;1.17;;;13.40;99.90;;;;;;5013593;28;20067;-75
2023/05/10 12:52:32;;;;;;;4.78;1.33;;;13.40;99.90;;;;;;5013394;28;20030;-75